createdAt,value
2023-03-30T00:01:18.888Z,29.43
2023-03-30T00:03:50.059Z,39.80
2023-03-30T00:06:23.455Z,32.90
2023-03-30T00:09:00.647Z,31.90
2023-03-30T00:11:34.112Z,39.27
2023-03-30T00:14:02.344Z,30.63
2023-03-30T00:16:31.765Z,29.83
2023-03-30T00:18:58.901Z,28.57
2023-03-30T00:21:28.287Z,39.80
2023-03-30T00:23:57.378Z,34.40
2023-03-30T00:26:24.666Z,30.90
2023-03-30T00:28:52.492Z,35.93
2023-03-30T00:31:20.512Z,41.47
2023-03-30T00:33:47.986Z,40.03
2023-03-30T00:36:16.578Z,35.00
2023-03-30T00:38:48.434Z,38.20
2023-03-30T00:41:18.338Z,32.60
2023-03-30T00:44:51.917Z,36.27
2023-03-30T00:47:19.819Z,29.10
2023-03-30T00:49:47.488Z,32.10
2023-03-30T00:52:19.321Z,35.67
2023-03-30T00:54:47.605Z,34.77
2023-03-30T00:57:17.670Z,32.70
2023-03-30T00:59:45.289Z,41.50
2023-03-30T01:02:15.462Z,33.50
2023-03-30T01:04:45.835Z,36.50
2023-03-30T01:07:13.645Z,29.47
2023-03-30T01:09:42.961Z,32.10
2023-03-30T01:12:11.228Z,40.83
2023-03-30T01:14:42.299Z,30.93
2023-03-30T01:17:33.098Z,32.90
2023-03-30T01:20:20.896Z,32.70
2023-03-30T01:23:13.580Z,31.53
2023-03-30T01:26:11.561Z,30.53
2023-03-30T01:29:00.539Z,33.40
2023-03-30T01:32:03.240Z,36.50
2023-03-30T01:34:48.250Z,33.13
2023-03-30T01:37:37.374Z,31.73
2023-03-30T01:40:13.201Z,36.47
2023-03-30T01:42:57.974Z,32.53
2023-03-30T01:45:45.700Z,32.40
2023-03-30T01:48:39.444Z,39.73
2023-03-30T01:51:13.140Z,37.30
2023-03-30T01:54:08.410Z,36.27
2023-03-30T01:56:57.127Z,33.10
2023-03-30T01:59:37.551Z,35.20
2023-03-30T02:02:07.247Z,38.73
2023-03-30T02:04:42.132Z,37.70
2023-03-30T02:07:24.192Z,47.03
2023-03-30T02:09:55.045Z,32.83
2023-03-30T02:12:23.844Z,43.57
2023-03-30T02:14:52.913Z,37.10
2023-03-30T02:17:27.236Z,40.20
2023-03-30T02:20:00.425Z,41.00
2023-03-30T02:22:30.630Z,36.97
2023-03-30T02:24:58.574Z,37.10
2023-03-30T02:27:27.748Z,33.93
2023-03-30T02:29:57.029Z,43.50
2023-03-30T02:32:37.148Z,36.93
2023-03-30T02:35:26.770Z,39.00
2023-03-30T02:38:35.561Z,41.57
2023-03-30T02:41:31.232Z,31.27
2023-03-30T02:44:22.458Z,35.50
2023-03-30T02:47:00.450Z,39.30
2023-03-30T02:49:43.581Z,35.30
2023-03-30T02:52:57.526Z,31.00
2023-03-30T02:55:51.388Z,29.37
2023-03-30T02:58:47.570Z,31.23
2023-03-30T03:01:47.899Z,30.97
2023-03-30T03:04:15.689Z,28.77
2023-03-30T03:06:43.294Z,27.30
2023-03-30T03:09:10.262Z,29.03
2023-03-30T03:11:37.229Z,30.17
2023-03-30T03:14:04.382Z,31.23
2023-03-30T03:16:34.675Z,32.63
2023-03-30T03:19:04.512Z,24.63
2023-03-30T03:21:31.359Z,29.33
2023-03-30T03:23:58.540Z,29.97
2023-03-30T03:26:27.071Z,24.53
2023-03-30T03:28:54.197Z,29.73
2023-03-30T03:31:22.156Z,27.97
2023-03-30T03:33:50.616Z,25.40
2023-03-30T03:36:25.135Z,23.40
2023-03-30T03:38:52.461Z,36.07
2023-03-30T03:41:22.046Z,20.50
2023-03-30T03:43:53.702Z,29.80
2023-03-30T03:46:21.128Z,25.93
2023-03-30T03:48:50.260Z,29.90
2023-03-30T03:51:17.368Z,22.83
2023-03-30T03:53:44.312Z,24.03
2023-03-30T03:56:14.906Z,29.17
2023-03-30T03:58:46.604Z,27.33
2023-03-30T04:01:14.611Z,26.60
2023-03-30T04:03:44.293Z,24.97
2023-03-30T04:06:14.117Z,33.07
2023-03-30T04:08:46.204Z,32.33
2023-03-30T04:11:17.717Z,22.93
2023-03-30T04:13:48.197Z,26.03
2023-03-30T04:16:15.570Z,32.17
2023-03-30T04:18:43.842Z,28.40
2023-03-30T04:21:13.244Z,23.60
2023-03-30T04:23:45.602Z,25.30
2023-03-30T04:26:15.881Z,25.70
2023-03-30T04:28:43.109Z,27.07
2023-03-30T04:31:11.003Z,32.20
2023-03-30T04:33:52.080Z,27.30
2023-03-30T04:36:20.774Z,25.63
2023-03-30T04:39:00.557Z,29.80
2023-03-30T04:41:33.250Z,29.03
2023-03-30T04:44:07.373Z,31.87
2023-03-30T04:46:34.389Z,34.93
2023-03-30T04:49:01.833Z,31.13
2023-03-30T04:51:31.833Z,25.63
2023-03-30T04:53:58.809Z,28.50
2023-03-30T04:56:28.167Z,21.93
2023-03-30T04:58:56.103Z,28.30
2023-03-30T05:01:23.175Z,32.43
2023-03-30T05:03:50.297Z,28.17
2023-03-30T05:06:19.692Z,22.70
2023-03-30T05:08:48.940Z,29.80
2023-03-30T05:11:16.069Z,31.63
2023-03-30T05:13:43.128Z,23.13
2023-03-30T05:16:10.495Z,30.47
2023-03-30T05:18:39.701Z,24.73
2023-03-30T05:21:07.138Z,30.53
2023-03-30T05:23:34.093Z,22.30
2023-03-30T05:26:04.714Z,22.60
2023-03-30T05:28:32.591Z,25.47
2023-03-30T05:31:00.226Z,24.70
2023-03-30T05:33:30.220Z,22.00
2023-03-30T05:35:57.328Z,23.27
2023-03-30T05:38:24.356Z,22.30
2023-03-30T05:40:55.014Z,22.60
2023-03-30T05:43:22.282Z,20.63
2023-03-30T05:45:49.196Z,19.77
2023-03-30T05:48:18.820Z,17.70
2023-03-30T05:50:48.643Z,21.47
2023-03-30T05:53:16.243Z,19.67
2023-03-30T05:55:48.548Z,30.17
2023-03-30T05:58:16.956Z,15.67
2023-03-30T06:00:45.188Z,16.10
2023-03-30T06:03:12.752Z,12.97
2023-03-30T06:05:43.863Z,15.70
2023-03-30T06:08:12.063Z,19.17
2023-03-30T06:10:39.378Z,10.93
2023-03-30T06:13:09.206Z,25.37
2023-03-30T06:15:38.330Z,15.57
2023-03-30T06:18:09.956Z,13.23
2023-03-30T06:20:39.229Z,14.17
2023-03-30T06:23:06.298Z,17.10
2023-03-30T06:25:33.859Z,11.17
2023-03-30T06:28:03.371Z,14.03
2023-03-30T06:30:30.490Z,11.80
2023-03-30T06:32:57.496Z,11.63
2023-03-30T06:35:27.328Z,11.50
2023-03-30T06:37:54.293Z,20.13
2023-03-30T06:40:23.910Z,10.93
2023-03-30T06:42:53.230Z,12.77
2023-03-30T06:45:23.450Z,13.13
2023-03-30T06:47:50.441Z,10.43
2023-03-30T06:50:17.613Z,20.40
2023-03-30T06:52:44.593Z,14.67
2023-03-30T06:55:17.155Z,8.60
2023-03-30T06:57:44.121Z,9.80
2023-03-30T07:00:15.319Z,9.17
2023-03-30T07:02:43.385Z,11.13
2023-03-30T07:05:11.877Z,9.13
2023-03-30T07:07:41.382Z,6.80
2023-03-30T07:10:12.022Z,7.10
2023-03-30T07:12:40.932Z,15.23
2023-03-30T07:15:09.142Z,6.57
2023-03-30T07:17:37.191Z,7.63
2023-03-30T07:20:06.121Z,14.80
2023-03-30T07:22:33.237Z,10.23
2023-03-30T07:25:00.203Z,21.10
2023-03-30T07:27:27.470Z,8.23
2023-03-30T07:29:55.086Z,9.67
2023-03-30T07:32:22.782Z,6.77
2023-03-30T07:34:49.913Z,6.83
2023-03-30T07:37:20.629Z,5.30
2023-03-30T07:39:48.821Z,9.17
2023-03-30T07:42:16.043Z,6.23
2023-03-30T07:44:45.825Z,12.93
2023-03-30T07:47:12.892Z,9.13
2023-03-30T07:49:44.730Z,10.57
2023-03-30T07:52:12.016Z,29.97
2023-03-30T07:54:39.389Z,8.50
2023-03-30T07:57:06.397Z,6.50
2023-03-30T07:59:36.065Z,6.93
2023-03-30T08:02:04.627Z,10.10
2023-03-30T08:04:31.925Z,7.33
2023-03-30T08:07:01.601Z,8.50
2023-03-30T08:09:28.609Z,5.47
2023-03-30T08:11:58.274Z,11.20
2023-03-30T08:14:27.408Z,10.30
2023-03-30T08:16:55.289Z,5.53
2023-03-30T08:19:27.125Z,6.73
2023-03-30T08:21:57.050Z,11.33
2023-03-30T08:24:24.447Z,10.30
2023-03-30T08:26:53.540Z,12.43
2023-03-30T08:29:21.185Z,13.90
2023-03-30T08:31:48.316Z,18.23
2023-03-30T08:34:15.364Z,5.37
2023-03-30T08:36:42.813Z,6.40
2023-03-30T08:39:10.936Z,5.67
2023-03-30T08:42:08.378Z,9.10
2023-03-30T08:44:43.541Z,9.83
2023-03-30T08:47:18.198Z,17.03
2023-03-30T08:49:58.858Z,13.20
2023-03-30T08:52:30.931Z,6.93
2023-03-30T08:55:01.493Z,7.23
2023-03-30T08:57:51.301Z,7.93
2023-03-30T09:00:30.912Z,11.53
2023-03-30T09:03:46.251Z,20.10
2023-03-30T09:06:40.615Z,14.17
2023-03-30T09:09:15.251Z,13.30
2023-03-30T09:11:43.094Z,15.50
2023-03-30T09:14:42.550Z,13.33
2023-03-30T09:17:18.279Z,18.90
2023-03-30T09:19:51.684Z,9.87
2023-03-30T09:22:20.365Z,7.83
2023-03-30T09:24:52.724Z,7.27
2023-03-30T09:27:45.753Z,15.13
2023-03-30T09:30:34.941Z,11.97
2023-03-30T09:33:28.197Z,4.90
2023-03-30T09:36:19.322Z,6.57
2023-03-30T09:38:50.395Z,8.83
2023-03-30T09:41:46.071Z,6.70
2023-03-30T09:44:38.455Z,7.90
2023-03-30T09:47:39.024Z,4.97
2023-03-30T09:50:26.761Z,4.47
2023-03-30T09:53:02.135Z,11.93
2023-03-30T09:55:32.885Z,10.77
2023-03-30T09:58:15.523Z,10.77
2023-03-30T10:00:42.462Z,5.00
2023-03-30T10:03:21.882Z,6.43
2023-03-30T10:06:13.407Z,4.93
2023-03-30T10:08:58.754Z,9.37
2023-03-30T10:11:31.770Z,6.43
2023-03-30T10:13:59.644Z,4.27
2023-03-30T10:16:34.358Z,3.03
2023-03-30T10:19:18.987Z,12.03
2023-03-30T10:21:46.974Z,10.83
2023-03-30T10:24:32.166Z,5.77
2023-03-30T10:27:13.710Z,3.60
2023-03-30T10:29:46.900Z,7.97
2023-03-30T10:32:31.768Z,12.23
2023-03-30T10:35:02.147Z,8.87
2023-03-30T10:37:44.964Z,9.87
2023-03-30T10:40:21.054Z,8.17
2023-03-30T10:42:55.636Z,7.70
2023-03-30T10:45:33.297Z,4.50
2023-03-30T10:48:34.301Z,3.47
2023-03-30T10:52:21.752Z,6.33
2023-03-30T10:55:17.043Z,2.77
2023-03-30T10:57:54.578Z,6.27
2023-03-30T11:00:28.863Z,5.87
2023-03-30T11:03:44.820Z,4.30
2023-03-30T11:06:26.423Z,3.87
2023-03-30T11:08:57.855Z,6.03
2023-03-30T11:11:40.649Z,4.13
2023-03-30T11:15:02.202Z,3.20
2023-03-30T11:17:29.948Z,5.80
2023-03-30T11:20:06.011Z,3.47
2023-03-30T11:22:47.591Z,9.93
2023-03-30T11:25:59.200Z,8.27
2023-03-30T11:28:54.729Z,4.47
2023-03-30T11:31:47.505Z,2.70
2023-03-30T11:34:49.601Z,8.73
2023-03-30T11:37:32.232Z,9.97
2023-03-30T11:40:28.580Z,4.30
2023-03-30T11:42:58.500Z,3.70
2023-03-30T11:45:37.837Z,4.83
2023-03-30T11:48:33.837Z,6.63
2023-03-30T11:51:04.010Z,2.43
2023-03-30T11:53:56.651Z,6.17
2023-03-30T11:56:53.166Z,1.70
2023-03-30T12:00:03.736Z,4.00
2023-03-30T12:03:02.124Z,4.27
2023-03-30T12:05:43.295Z,6.63
2023-03-30T12:08:25.516Z,3.93
2023-03-30T12:11:04.223Z,6.40
2023-03-30T12:13:44.502Z,2.70
2023-03-30T12:16:37.987Z,4.40
2023-03-30T12:19:22.397Z,1.70
2023-03-30T12:22:01.466Z,1.93
2023-03-30T12:24:46.528Z,1.77
2023-03-30T12:27:13.700Z,6.40
2023-03-30T12:30:02.619Z,2.90
2023-03-30T12:32:31.678Z,3.13
2023-03-30T12:34:58.905Z,13.67
2023-03-30T12:37:37.701Z,10.93
2023-03-30T12:40:22.100Z,2.97
2023-03-30T12:43:19.457Z,5.33
2023-03-30T12:46:42.858Z,7.43
2023-03-30T12:49:28.198Z,5.90
2023-03-30T12:52:13.750Z,12.80
2023-03-30T12:54:50.285Z,12.10
2023-03-30T12:57:54.075Z,1.97
2023-03-30T13:01:09.656Z,5.30
2023-03-30T13:03:59.003Z,7.63
2023-03-30T13:07:18.140Z,14.73
2023-03-30T13:09:56.218Z,7.70
2023-03-30T13:12:40.323Z,8.43
2023-03-30T13:15:16.235Z,3.80
2023-03-30T13:18:32.087Z,7.73
2023-03-30T13:21:19.260Z,10.00
2023-03-30T13:24:02.281Z,8.87
2023-03-30T13:26:43.482Z,10.77
2023-03-30T13:29:18.765Z,7.40
2023-03-30T13:32:20.126Z,11.90
2023-03-30T13:35:27.950Z,11.57
2023-03-30T13:38:44.195Z,7.43
2023-03-30T13:41:26.408Z,10.00
2023-03-30T13:44:41.338Z,9.90
2023-03-30T13:47:29.778Z,7.77
2023-03-30T13:50:11.873Z,9.73
2023-03-30T13:52:47.397Z,14.40
2023-03-30T13:55:39.993Z,13.60
2023-03-30T13:58:22.274Z,12.93
2023-03-30T14:01:03.082Z,14.43
2023-03-30T14:03:41.679Z,8.17
2023-03-30T14:06:17.643Z,8.27
2023-03-30T14:08:48.452Z,13.23
2023-03-30T14:11:24.404Z,14.30
2023-03-30T14:13:53.862Z,9.30
2023-03-30T14:16:27.920Z,8.93
2023-03-30T14:19:33.730Z,13.23
2023-03-30T14:22:14.109Z,11.00
2023-03-30T14:25:04.846Z,19.53
2023-03-30T14:27:41.298Z,15.53
2023-03-30T14:30:31.763Z,15.37
2023-03-30T14:33:11.741Z,24.67
2023-03-30T14:35:43.898Z,12.93
2023-03-30T14:38:26.721Z,9.03
2023-03-30T14:40:55.294Z,12.00
2023-03-30T14:43:30.868Z,13.90
2023-03-30T14:46:06.143Z,11.10
2023-03-30T14:48:42.231Z,11.23
2023-03-30T14:51:28.853Z,7.20
2023-03-30T14:53:58.714Z,6.97
2023-03-30T14:56:28.074Z,9.50
2023-03-30T14:58:58.740Z,9.70
2023-03-30T15:01:34.994Z,9.50
2023-03-30T15:04:15.836Z,9.70
2023-03-30T15:06:46.050Z,7.70
2023-03-30T15:09:23.158Z,7.80
2023-03-30T15:12:02.316Z,6.70
2023-03-30T15:14:38.353Z,12.30
2023-03-30T15:17:22.804Z,17.97
2023-03-30T15:19:54.161Z,5.00
2023-03-30T15:22:41.674Z,9.47
2023-03-30T15:25:15.529Z,5.23
2023-03-30T15:28:11.720Z,8.60
2023-03-30T15:30:43.828Z,10.40
2023-03-30T15:33:29.922Z,12.73
2023-03-30T15:36:14.205Z,3.50
2023-03-30T15:38:51.720Z,10.73
2023-03-30T15:41:43.603Z,6.10
2023-03-30T15:44:16.078Z,11.87
2023-03-30T15:46:50.439Z,7.80
2023-03-30T15:49:25.284Z,11.07
2023-03-30T15:52:17.385Z,5.40
2023-03-30T15:54:51.863Z,4.60
2023-03-30T15:57:29.054Z,7.00
2023-03-30T16:00:05.586Z,18.03
2023-03-30T16:02:32.567Z,8.50
2023-03-30T16:05:07.779Z,9.83
2023-03-30T16:07:36.289Z,11.30
2023-03-30T16:10:06.648Z,7.47
2023-03-30T16:12:34.776Z,11.73
2023-03-30T16:15:04.291Z,8.80
2023-03-30T16:17:34.891Z,15.00
2023-03-30T16:20:03.254Z,7.37
2023-03-30T16:22:31.934Z,13.27
2023-03-30T16:24:58.990Z,8.53
2023-03-30T16:27:25.983Z,12.03
2023-03-30T16:29:57.693Z,9.67
2023-03-30T16:32:32.139Z,15.13
2023-03-30T16:35:02.753Z,10.13
2023-03-30T16:37:31.687Z,9.80
2023-03-30T16:39:58.823Z,6.20
2023-03-30T16:42:27.490Z,14.83
2023-03-30T16:44:54.676Z,11.00
2023-03-30T16:47:21.793Z,13.37
2023-03-30T16:49:51.790Z,7.57
2023-03-30T16:52:18.770Z,9.60
2023-03-30T16:54:45.742Z,9.90
2023-03-30T16:57:15.770Z,12.03
2023-03-30T16:59:43.153Z,9.73
2023-03-30T17:02:16.324Z,9.83
2023-03-30T17:04:49.875Z,7.33
2023-03-30T17:07:16.827Z,16.00
2023-03-30T17:09:43.766Z,8.57
2023-03-30T17:12:13.173Z,9.07
2023-03-30T17:14:42.946Z,9.80
2023-03-30T17:17:10.079Z,6.13
2023-03-30T17:19:36.988Z,11.27
2023-03-30T17:22:06.390Z,9.00
2023-03-30T17:24:33.330Z,9.20
2023-03-30T17:27:01.330Z,10.57
2023-03-30T17:29:28.174Z,10.20
2023-03-30T17:31:57.400Z,22.93
2023-03-30T17:34:24.566Z,14.90
2023-03-30T17:36:51.532Z,13.90
2023-03-30T17:39:21.091Z,8.13
2023-03-30T17:41:48.081Z,13.00
2023-03-30T17:44:17.279Z,7.57
2023-03-30T17:46:44.375Z,12.53
2023-03-30T17:49:17.258Z,10.47
2023-03-30T17:51:44.411Z,12.83
2023-03-30T17:54:11.393Z,26.93
2023-03-30T17:56:38.387Z,8.80
2023-03-30T17:59:13.085Z,10.20
2023-03-30T18:01:40.214Z,12.93
2023-03-30T18:04:09.658Z,12.77
2023-03-30T18:06:36.879Z,10.70
2023-03-30T18:09:16.496Z,7.57
2023-03-30T18:11:48.126Z,9.23
2023-03-30T18:14:15.332Z,16.80
2023-03-30T18:16:45.966Z,14.30
2023-03-30T18:19:17.536Z,16.80
2023-03-30T18:21:44.734Z,13.70
2023-03-30T18:24:15.303Z,16.23
2023-03-30T18:26:43.628Z,12.43
2023-03-30T18:29:21.991Z,15.90
2023-03-30T18:31:51.924Z,9.97
2023-03-30T18:34:23.413Z,9.13
2023-03-30T18:36:52.721Z,11.13
2023-03-30T18:39:20.178Z,21.47
2023-03-30T18:41:50.048Z,20.93
2023-03-30T18:44:21.826Z,16.30
2023-03-30T18:46:51.925Z,16.30
2023-03-30T18:49:22.542Z,16.93
2023-03-30T18:51:52.614Z,9.80
2023-03-30T18:54:19.943Z,15.33
2023-03-30T18:56:48.078Z,24.40
2023-03-30T18:59:15.311Z,22.30
2023-03-30T19:01:45.935Z,14.13
2023-03-30T19:04:15.738Z,24.47
2023-03-30T19:06:44.510Z,14.40
2023-03-30T19:09:11.850Z,13.60
2023-03-30T19:11:41.410Z,12.70
2023-03-30T19:14:12.166Z,13.73
2023-03-30T19:16:44.185Z,7.37
2023-03-30T19:19:14.895Z,14.47
2023-03-30T19:21:43.157Z,19.37
2023-03-30T19:24:14.052Z,26.03
2023-03-30T19:26:41.445Z,14.60
2023-03-30T19:29:08.335Z,19.83
2023-03-30T19:31:36.621Z,13.53
2023-03-30T19:34:03.694Z,11.03
2023-03-30T19:36:33.256Z,12.33
2023-03-30T19:39:02.614Z,12.20
2023-03-30T19:41:31.704Z,16.07
2023-03-30T19:44:02.074Z,13.23
2023-03-30T19:46:31.560Z,8.00
2023-03-30T19:49:03.240Z,12.33
2023-03-30T19:51:34.766Z,16.07
2023-03-30T19:54:01.804Z,19.80
2023-03-30T19:56:31.891Z,14.00
2023-03-30T19:59:01.556Z,10.30
2023-03-30T20:01:28.833Z,15.50
2023-03-30T20:03:56.287Z,17.97
2023-03-30T20:06:23.370Z,19.00
2023-03-30T20:08:50.594Z,7.53
2023-03-30T20:11:17.879Z,16.73
2023-03-30T20:13:49.142Z,14.20
2023-03-30T20:16:23.102Z,12.63
2023-03-30T20:18:54.572Z,9.43
2023-03-30T20:21:24.235Z,18.90
2023-03-30T20:23:51.634Z,17.37
2023-03-30T20:26:19.407Z,15.23
2023-03-30T20:28:47.339Z,13.90
2023-03-30T20:31:15.425Z,15.23
2023-03-30T20:33:42.923Z,14.33
2023-03-30T20:36:10.658Z,16.87
2023-03-30T20:38:39.631Z,16.43
2023-03-30T20:41:07.841Z,12.10
2023-03-30T20:46:16.533Z,19.83
2023-03-30T20:48:54.205Z,24.43
2023-03-30T20:51:23.585Z,19.37
2023-03-30T20:53:54.398Z,21.63
2023-03-30T20:56:22.020Z,14.90
2023-03-30T20:58:49.501Z,18.53
2023-03-30T21:01:25.561Z,26.17
2023-03-30T21:03:59.798Z,21.73
2023-03-30T21:06:31.304Z,18.50
2023-03-30T21:09:02.765Z,22.23
2023-03-30T21:11:33.594Z,22.83
2023-03-30T21:14:03.601Z,10.73
2023-03-30T21:16:30.978Z,12.27
2023-03-30T21:18:58.222Z,17.93
2023-03-30T21:21:25.295Z,18.83
2023-03-30T21:23:52.413Z,24.07
2023-03-30T21:26:21.778Z,17.47
2023-03-30T21:28:51.231Z,10.73
2023-03-30T21:31:22.905Z,10.77
2023-03-30T21:33:50.317Z,15.37
2023-03-30T21:36:17.570Z,7.27
2023-03-30T21:38:44.705Z,12.33
2023-03-30T21:41:18.347Z,10.17
2023-03-30T21:43:47.919Z,11.43
2023-03-30T21:46:19.547Z,5.67
2023-03-30T21:48:49.060Z,6.87
2023-03-30T21:51:24.540Z,5.60
2023-03-30T21:53:53.322Z,3.83
2023-03-30T21:56:23.493Z,8.67
2023-03-30T21:58:51.132Z,11.33
2023-03-30T22:01:23.719Z,14.03
2023-03-30T22:03:53.661Z,16.00
2023-03-30T22:06:24.016Z,10.23
2023-03-30T22:08:50.979Z,14.60
2023-03-30T22:11:25.169Z,14.43
2023-03-30T22:13:55.759Z,20.80
2023-03-30T22:16:32.218Z,20.00
2023-03-30T22:19:05.040Z,25.70
2023-03-30T22:21:35.692Z,14.40
2023-03-30T22:24:07.836Z,19.83
2023-03-30T22:26:38.660Z,15.27
2023-03-30T22:29:06.053Z,24.00
2023-03-30T22:31:33.706Z,26.20
2023-03-30T22:34:03.892Z,22.17
2023-03-30T22:36:31.561Z,18.27
2023-03-30T22:39:01.213Z,23.13
2023-03-30T22:41:28.558Z,29.80
2023-03-30T22:43:58.330Z,22.77
2023-03-30T22:46:28.253Z,17.57
2023-03-30T22:48:58.680Z,15.43
2023-03-30T22:51:34.244Z,15.90
2023-03-30T22:54:05.118Z,15.67
2023-03-30T22:56:32.089Z,11.93
2023-03-30T22:59:01.062Z,17.47
2023-03-30T23:01:32.535Z,23.20
2023-03-30T23:04:05.874Z,19.80
2023-03-30T23:06:36.727Z,21.10
2023-03-30T23:09:04.720Z,22.40
2023-03-30T23:11:34.945Z,23.13
2023-03-30T23:14:07.188Z,14.00
2023-03-30T23:16:39.991Z,7.93
2023-03-30T23:19:07.772Z,20.10
2023-03-30T23:21:34.810Z,24.60
2023-03-30T23:24:08.091Z,14.60
2023-03-30T23:26:35.567Z,22.57
2023-03-30T23:29:03.801Z,12.00
2023-03-30T23:31:34.561Z,17.47
2023-03-30T23:34:01.829Z,10.30
2023-03-30T23:36:28.860Z,14.47
2023-03-30T23:38:56.004Z,17.03
2023-03-30T23:41:24.302Z,20.80
2023-03-30T23:43:51.637Z,25.20
2023-03-30T23:46:19.910Z,16.27
2023-03-30T23:48:50.090Z,27.47
2023-03-30T23:51:17.188Z,24.83
2023-03-30T23:53:47.213Z,19.00
2023-03-30T23:56:17.376Z,28.37
2023-03-30T23:58:47.267Z,17.80
